createdAt,value
2022-07-26T00:00:11.740Z,18.37
2022-07-26T00:01:11.791Z,18.37
2022-07-26T00:02:16.538Z,18.37
2022-07-26T00:03:12.704Z,18.35
2022-07-26T00:04:11.699Z,18.33
2022-07-26T00:05:11.692Z,18.27
2022-07-26T00:06:11.681Z,18.36
2022-07-26T00:07:11.691Z,18.26
2022-07-26T00:08:11.645Z,18.27
2022-07-26T00:09:11.851Z,18.20
2022-07-26T00:10:11.630Z,18.21
2022-07-26T00:11:11.641Z,18.18
2022-07-26T00:12:11.629Z,18.20
2022-07-26T00:13:11.599Z,18.23
2022-07-26T00:14:11.583Z,18.25
2022-07-26T00:15:11.579Z,18.03
2022-07-26T00:16:11.738Z,18.10
2022-07-26T00:17:11.577Z,18.00
2022-07-26T00:18:11.950Z,18.10
2022-07-26T00:19:11.532Z,18.00
2022-07-26T00:20:11.513Z,17.95
2022-07-26T00:21:11.654Z,17.96
2022-07-26T00:22:11.493Z,17.89
2022-07-26T00:23:11.510Z,17.96
2022-07-26T00:24:11.468Z,17.95
2022-07-26T00:25:11.459Z,17.92
2022-07-26T00:26:11.469Z,17.93
2022-07-26T00:27:11.441Z,17.95
2022-07-26T00:28:11.456Z,17.95
2022-07-26T00:29:11.798Z,17.92
2022-07-26T00:30:11.407Z,17.89
2022-07-26T00:31:11.517Z,17.89
2022-07-26T00:32:11.384Z,17.90
2022-07-26T00:33:11.515Z,17.84
2022-07-26T00:34:11.361Z,17.87
2022-07-26T00:35:11.358Z,17.87
2022-07-26T00:36:11.369Z,17.79
2022-07-26T00:37:11.333Z,17.87
2022-07-26T00:38:11.318Z,17.81
2022-07-26T00:39:11.741Z,17.81
2022-07-26T00:40:11.295Z,17.93
2022-07-26T00:41:11.314Z,17.86
2022-07-26T00:42:11.272Z,17.89
2022-07-26T00:43:11.293Z,17.92
2022-07-26T00:44:11.285Z,17.92
2022-07-26T00:45:11.245Z,17.86
2022-07-26T00:46:11.387Z,17.95
2022-07-26T00:47:11.213Z,17.96
2022-07-26T00:48:11.238Z,17.96
2022-07-26T00:49:11.877Z,17.87
2022-07-26T00:50:11.182Z,17.92
2022-07-26T00:51:11.170Z,17.92
2022-07-26T00:52:11.160Z,18.02
2022-07-26T00:53:11.151Z,18.11
2022-07-26T00:54:11.167Z,18.18
2022-07-26T00:55:11.125Z,18.15
2022-07-26T00:56:11.136Z,18.17
2022-07-26T00:57:11.102Z,18.25
2022-07-26T00:58:11.104Z,18.23
2022-07-26T00:59:11.618Z,18.23
2022-07-26T01:00:11.073Z,18.23
2022-07-26T01:01:11.183Z,18.29
2022-07-26T01:02:11.179Z,18.33
2022-07-26T01:03:11.051Z,18.39
2022-07-26T01:04:11.655Z,18.36
2022-07-26T01:05:11.049Z,18.42
2022-07-26T01:06:11.002Z,18.48
2022-07-26T01:07:15.253Z,18.47
2022-07-26T01:08:10.975Z,18.52
2022-07-26T01:09:10.972Z,18.57
2022-07-26T01:10:10.971Z,18.48
2022-07-26T01:11:10.975Z,18.52
2022-07-26T01:12:10.943Z,18.51
2022-07-26T01:13:10.925Z,18.54
2022-07-26T01:14:11.453Z,18.55
2022-07-26T01:15:10.935Z,18.57
2022-07-26T01:16:11.008Z,18.48
2022-07-26T01:17:10.898Z,18.51
2022-07-26T01:18:10.865Z,18.57
2022-07-26T01:19:10.855Z,18.50
2022-07-26T01:20:10.865Z,18.60
2022-07-26T01:21:13.819Z,18.51
2022-07-26T01:22:14.371Z,18.51
2022-07-26T01:23:10.811Z,18.58
2022-07-26T01:24:11.267Z,18.69
2022-07-26T01:25:10.812Z,18.60
2022-07-26T01:26:10.774Z,18.66
2022-07-26T01:27:10.806Z,18.66
2022-07-26T01:28:10.782Z,18.63
2022-07-26T01:29:10.773Z,18.76
2022-07-26T01:30:10.746Z,18.67
2022-07-26T01:31:10.811Z,18.62
2022-07-26T01:32:10.746Z,18.69
2022-07-26T01:33:10.706Z,18.70
2022-07-26T01:34:11.093Z,18.65
2022-07-26T01:35:10.681Z,18.65
2022-07-26T01:36:10.692Z,18.62
2022-07-26T01:37:10.657Z,18.70
2022-07-26T01:38:10.645Z,18.67
2022-07-26T01:39:10.661Z,18.57
2022-07-26T01:40:10.628Z,18.51
2022-07-26T01:41:10.623Z,18.48
2022-07-26T01:42:10.609Z,18.50
2022-07-26T01:43:10.600Z,18.50
2022-07-26T01:44:10.996Z,18.51
2022-07-26T01:45:10.598Z,18.60
2022-07-26T01:46:10.637Z,18.54
2022-07-26T01:47:10.547Z,18.50
2022-07-26T01:48:10.561Z,18.51
2022-07-26T01:49:10.565Z,18.58
2022-07-26T01:50:10.528Z,18.57
2022-07-26T01:51:10.514Z,18.57
2022-07-26T01:52:10.487Z,18.60
2022-07-26T01:53:10.499Z,18.57
2022-07-26T01:54:10.965Z,18.50
2022-07-26T01:55:10.456Z,18.50
2022-07-26T01:56:10.463Z,18.58
2022-07-26T01:57:10.438Z,18.51
2022-07-26T01:58:10.450Z,18.62
2022-07-26T01:59:10.439Z,18.51
2022-07-26T02:00:10.416Z,18.55
2022-07-26T02:01:10.433Z,18.52
2022-07-26T02:02:10.472Z,18.52
2022-07-26T02:03:10.500Z,18.54
2022-07-26T02:04:10.816Z,18.55
2022-07-26T02:05:10.346Z,18.54
2022-07-26T02:06:10.340Z,18.50
2022-07-26T02:07:12.810Z,18.50
2022-07-26T02:08:10.312Z,18.50
2022-07-26T02:09:12.646Z,18.60
2022-07-26T02:10:10.286Z,18.54
2022-07-26T02:11:10.278Z,18.52
2022-07-26T02:12:10.269Z,18.47
2022-07-26T02:13:10.260Z,18.57
2022-07-26T02:14:10.787Z,18.50
2022-07-26T02:15:10.263Z,18.54
2022-07-26T02:16:10.298Z,18.51
2022-07-26T02:17:10.214Z,18.42
2022-07-26T02:18:10.199Z,18.44
2022-07-26T02:19:10.194Z,18.41
2022-07-26T02:20:10.184Z,18.36
2022-07-26T02:21:10.191Z,18.36
2022-07-26T02:22:10.159Z,18.33
2022-07-26T02:23:10.145Z,18.26
2022-07-26T02:24:10.553Z,18.30
2022-07-26T02:25:10.148Z,18.15
2022-07-26T02:26:10.115Z,18.20
2022-07-26T02:27:10.100Z,18.18
2022-07-26T02:28:10.096Z,18.21
2022-07-26T02:29:10.096Z,17.99
2022-07-26T02:30:10.069Z,18.02
2022-07-26T02:31:10.112Z,18.00
2022-07-26T02:32:10.050Z,17.97
2022-07-26T02:33:10.032Z,18.03
2022-07-26T02:34:10.282Z,18.05
2022-07-26T02:35:10.011Z,17.95
2022-07-26T02:36:10.021Z,18.00
2022-07-26T02:37:09.997Z,17.96
2022-07-26T02:38:10.007Z,17.95
2022-07-26T02:39:09.965Z,17.89
2022-07-26T02:40:09.958Z,17.90
2022-07-26T02:41:09.971Z,17.89
2022-07-26T02:42:09.933Z,17.72
2022-07-26T02:43:09.921Z,17.81
2022-07-26T02:44:10.469Z,17.78
2022-07-26T02:45:09.899Z,17.81
2022-07-26T02:46:09.950Z,17.82
2022-07-26T02:47:09.880Z,17.82
2022-07-26T02:48:09.879Z,17.71
2022-07-26T02:49:09.971Z,17.72
2022-07-26T02:50:09.867Z,17.75
2022-07-26T02:51:09.860Z,17.72
2022-07-26T02:52:09.823Z,17.70
2022-07-26T02:53:09.830Z,17.64
2022-07-26T02:54:10.206Z,17.70
2022-07-26T02:55:09.812Z,17.59
2022-07-26T02:56:09.805Z,17.63
2022-07-26T02:57:09.767Z,17.63
2022-07-26T02:58:09.758Z,17.64
2022-07-26T02:59:09.751Z,17.56
2022-07-26T03:00:09.733Z,17.56
2022-07-26T03:01:09.804Z,17.54
2022-07-26T03:02:09.718Z,17.63
2022-07-26T03:03:09.786Z,17.72
2022-07-26T03:04:10.029Z,17.71
2022-07-26T03:05:09.675Z,17.56
2022-07-26T03:06:09.959Z,17.56
2022-07-26T03:07:09.655Z,17.66
2022-07-26T03:08:09.644Z,17.62
2022-07-26T03:09:09.631Z,17.63
2022-07-26T03:10:09.620Z,17.66
2022-07-26T03:11:12.111Z,17.64
2022-07-26T03:12:09.596Z,17.71
2022-07-26T03:13:09.616Z,17.72
2022-07-26T03:14:10.232Z,17.62
2022-07-26T03:15:09.596Z,17.71
2022-07-26T03:16:09.612Z,17.64
2022-07-26T03:17:09.547Z,17.74
2022-07-26T03:18:09.567Z,17.68
2022-07-26T03:19:09.545Z,17.74
2022-07-26T03:20:09.510Z,17.66
2022-07-26T03:21:09.504Z,17.77
2022-07-26T03:22:09.510Z,17.77
2022-07-26T03:23:09.475Z,17.95
2022-07-26T03:24:09.867Z,17.90
2022-07-26T03:25:09.457Z,17.90
2022-07-26T03:26:09.472Z,17.92
2022-07-26T03:27:09.432Z,17.93
2022-07-26T03:28:09.425Z,17.92
2022-07-26T03:29:09.433Z,17.92
2022-07-26T03:30:09.406Z,17.92
2022-07-26T03:31:09.471Z,17.99
2022-07-26T03:32:09.414Z,18.02
2022-07-26T03:33:09.370Z,17.95
2022-07-26T03:34:09.718Z,17.97
2022-07-26T03:35:09.342Z,17.95
2022-07-26T03:36:11.640Z,18.00
2022-07-26T03:37:10.321Z,17.96
2022-07-26T03:38:09.315Z,18.10
2022-07-26T03:39:09.326Z,18.02
2022-07-26T03:40:09.308Z,18.15
2022-07-26T03:41:09.308Z,18.02
2022-07-26T03:42:09.263Z,18.05
2022-07-26T03:43:09.259Z,17.95
2022-07-26T03:44:09.643Z,17.95
2022-07-26T03:45:09.239Z,18.03
2022-07-26T03:46:09.347Z,18.02
2022-07-26T03:47:09.212Z,18.00
2022-07-26T03:48:09.202Z,17.92
2022-07-26T03:49:13.201Z,18.02
2022-07-26T03:50:10.205Z,17.90
2022-07-26T03:51:09.201Z,17.95
2022-07-26T03:52:09.156Z,18.10
2022-07-26T03:53:09.175Z,18.05
2022-07-26T03:54:09.779Z,18.05
2022-07-26T03:55:09.121Z,18.02
2022-07-26T03:56:09.138Z,18.05
2022-07-26T03:57:09.101Z,18.10
2022-07-26T03:58:09.081Z,18.15
2022-07-26T03:59:09.083Z,18.26
2022-07-26T04:00:09.063Z,18.27
2022-07-26T04:01:09.125Z,18.23
2022-07-26T04:02:09.154Z,18.32
2022-07-26T04:03:09.209Z,18.26
2022-07-26T04:04:09.450Z,18.26
2022-07-26T04:05:09.341Z,18.33
2022-07-26T04:06:09.190Z,18.36
2022-07-26T04:07:09.020Z,18.41
2022-07-26T04:08:08.978Z,18.37
2022-07-26T04:09:08.967Z,18.47
2022-07-26T04:10:08.964Z,18.45
2022-07-26T04:11:09.208Z,18.44
2022-07-26T04:12:08.944Z,18.50
2022-07-26T04:13:08.924Z,18.47
2022-07-26T04:14:09.307Z,18.55
2022-07-26T04:15:09.008Z,18.50
2022-07-26T04:16:08.908Z,18.45
2022-07-26T04:17:08.921Z,18.51
2022-07-26T04:18:08.863Z,18.45
2022-07-26T04:19:08.855Z,18.48
2022-07-26T04:20:08.850Z,18.62
2022-07-26T04:21:08.862Z,18.63
2022-07-26T04:22:08.883Z,18.62
2022-07-26T04:23:10.713Z,18.63
2022-07-26T04:24:09.288Z,18.81
2022-07-26T04:25:08.807Z,18.80
2022-07-26T04:26:08.775Z,18.66
2022-07-26T04:27:08.810Z,18.70
2022-07-26T04:28:08.746Z,18.67
2022-07-26T04:29:08.743Z,18.75
2022-07-26T04:30:14.507Z,18.72
2022-07-26T04:31:09.811Z,18.82
2022-07-26T04:32:08.704Z,18.69
2022-07-26T04:33:08.718Z,18.81
2022-07-26T04:34:09.053Z,18.81
2022-07-26T04:35:08.693Z,18.88
2022-07-26T04:36:09.579Z,18.85
2022-07-26T04:37:08.678Z,18.95
2022-07-26T04:38:08.662Z,18.98
2022-07-26T04:39:08.625Z,18.99
2022-07-26T04:40:08.618Z,18.98
2022-07-26T04:41:08.643Z,19.00
2022-07-26T04:42:08.596Z,19.11
2022-07-26T04:43:09.135Z,19.07
2022-07-26T04:44:10.109Z,19.08
2022-07-26T04:45:08.912Z,19.07
2022-07-26T04:46:08.621Z,19.11
2022-07-26T04:47:08.540Z,19.06
2022-07-26T04:48:08.556Z,19.04
2022-07-26T04:49:08.597Z,19.08
2022-07-26T04:50:08.509Z,19.11
2022-07-26T04:51:08.507Z,19.14
2022-07-26T04:52:08.488Z,19.25
2022-07-26T04:53:08.637Z,19.22
2022-07-26T04:54:08.789Z,19.26
2022-07-26T04:55:08.512Z,19.14
2022-07-26T04:56:08.442Z,19.21
2022-07-26T04:57:08.450Z,19.11
2022-07-26T04:58:08.450Z,19.10
2022-07-26T04:59:08.408Z,19.00
2022-07-26T05:00:23.861Z,19.07
2022-07-26T05:01:10.698Z,19.04
2022-07-26T05:02:08.574Z,18.94
2022-07-26T05:03:08.523Z,18.94
2022-07-26T05:04:08.866Z,18.82
2022-07-26T05:05:08.369Z,18.88
2022-07-26T05:06:08.331Z,18.84
2022-07-26T05:07:08.328Z,18.87
2022-07-26T05:08:08.475Z,18.81
2022-07-26T05:09:08.586Z,18.69
2022-07-26T05:10:08.300Z,18.78
2022-07-26T05:11:08.408Z,18.65
2022-07-26T05:12:08.295Z,18.76
2022-07-26T05:13:08.424Z,18.75
2022-07-26T05:14:08.738Z,18.75
2022-07-26T05:15:13.956Z,18.78
2022-07-26T05:16:11.954Z,18.75
2022-07-26T05:17:08.666Z,18.72
2022-07-26T05:18:10.268Z,18.87
2022-07-26T05:19:08.246Z,18.90
2022-07-26T05:20:08.403Z,18.88
2022-07-26T05:21:08.269Z,18.94
2022-07-26T05:22:08.233Z,19.00
2022-07-26T05:23:08.327Z,19.10
2022-07-26T05:24:08.577Z,19.13
2022-07-26T05:25:08.342Z,19.29
2022-07-26T05:26:08.138Z,19.28
2022-07-26T05:27:08.110Z,19.28
2022-07-26T05:28:08.085Z,19.33
2022-07-26T05:29:08.070Z,19.37
2022-07-26T05:30:08.116Z,19.47
2022-07-26T05:31:08.253Z,19.78
2022-07-26T05:32:08.175Z,20.28
2022-07-26T05:33:08.152Z,20.70
2022-07-26T05:34:08.387Z,21.25
2022-07-26T05:35:08.099Z,21.65
2022-07-26T05:36:08.022Z,22.03
2022-07-26T05:37:07.988Z,22.35
2022-07-26T05:38:08.061Z,22.67
2022-07-26T05:39:11.614Z,22.70
2022-07-26T05:40:08.952Z,22.92
2022-07-26T05:41:07.969Z,22.98
2022-07-26T05:42:07.933Z,23.13
2022-07-26T05:43:07.929Z,23.31
2022-07-26T05:44:08.235Z,23.57
2022-07-26T05:45:07.897Z,23.70
2022-07-26T05:46:09.739Z,23.61
2022-07-26T05:47:07.879Z,23.75
2022-07-26T05:48:07.866Z,23.98
2022-07-26T05:49:07.883Z,23.93
2022-07-26T05:50:08.545Z,24.10
2022-07-26T05:51:07.859Z,24.24
2022-07-26T05:52:07.822Z,24.27
2022-07-26T05:53:07.808Z,24.37
2022-07-26T05:54:08.176Z,24.37
2022-07-26T05:55:07.810Z,24.43
2022-07-26T05:56:07.799Z,24.37
2022-07-26T05:57:07.762Z,24.24
2022-07-26T05:58:07.750Z,23.79
2022-07-26T05:59:07.742Z,23.88
2022-07-26T06:00:07.751Z,24.12
2022-07-26T06:01:07.730Z,24.12
2022-07-26T06:02:07.790Z,24.03
2022-07-26T06:03:07.699Z,24.24
2022-07-26T06:04:07.984Z,24.52
2022-07-26T06:05:07.721Z,24.77
2022-07-26T06:06:07.665Z,24.99
2022-07-26T06:07:08.313Z,24.87
2022-07-26T06:08:07.668Z,24.87
2022-07-26T06:09:07.674Z,25.06
2022-07-26T06:10:07.625Z,24.62
2022-07-26T06:11:07.612Z,24.12
2022-07-26T06:12:07.603Z,23.83
2022-07-26T06:13:07.628Z,23.65
2022-07-26T06:14:07.702Z,23.60
2022-07-26T06:15:15.406Z,23.48
2022-07-26T06:16:08.580Z,23.19
2022-07-26T06:17:07.629Z,23.38
2022-07-26T06:18:07.535Z,23.58
2022-07-26T06:19:07.523Z,23.46
2022-07-26T06:20:07.541Z,23.19
2022-07-26T06:21:07.509Z,23.10
2022-07-26T06:22:07.492Z,23.13
2022-07-26T06:23:07.772Z,23.33
2022-07-26T06:24:07.830Z,23.32
2022-07-26T06:25:07.461Z,23.40
2022-07-26T06:26:07.460Z,23.17
2022-07-26T06:27:07.439Z,22.65
2022-07-26T06:28:07.513Z,22.64
2022-07-26T06:29:07.420Z,22.24
2022-07-26T06:30:07.408Z,22.42
2022-07-26T06:31:07.400Z,22.42
2022-07-26T06:32:07.497Z,22.40
2022-07-26T06:33:07.530Z,22.37
2022-07-26T06:34:07.592Z,22.24
2022-07-26T06:35:07.380Z,22.25
2022-07-26T06:36:08.970Z,22.17
2022-07-26T06:37:07.327Z,22.10
2022-07-26T06:38:09.410Z,21.98
2022-07-26T06:39:07.339Z,21.80
2022-07-26T06:40:07.293Z,21.72
2022-07-26T06:41:07.312Z,21.68
2022-07-26T06:42:07.274Z,21.65
2022-07-26T06:43:07.264Z,21.71
2022-07-26T06:44:07.729Z,21.74
2022-07-26T06:45:07.239Z,21.75
2022-07-26T06:46:07.322Z,21.61
2022-07-26T06:47:07.243Z,21.65
2022-07-26T06:48:07.211Z,21.52
2022-07-26T06:49:07.767Z,21.31
2022-07-26T06:50:07.193Z,21.35
2022-07-26T06:51:07.303Z,21.37
2022-07-26T06:52:07.170Z,21.21
2022-07-26T06:53:07.152Z,21.21
2022-07-26T06:54:07.413Z,21.25
2022-07-26T06:55:07.179Z,21.27
2022-07-26T06:56:07.160Z,21.19
2022-07-26T06:57:07.132Z,21.17
2022-07-26T06:58:07.100Z,21.28
2022-07-26T06:59:09.528Z,21.28
2022-07-26T07:00:07.142Z,21.21
2022-07-26T07:01:07.255Z,21.10
2022-07-26T07:02:07.140Z,21.21
2022-07-26T07:03:07.041Z,21.17
2022-07-26T07:04:07.349Z,21.17
2022-07-26T07:05:10.514Z,21.21
2022-07-26T07:06:08.577Z,21.16
2022-07-26T07:07:07.044Z,21.13
2022-07-26T07:08:07.509Z,21.09
2022-07-26T07:09:08.326Z,21.07
2022-07-26T07:10:06.966Z,21.09
2022-07-26T07:11:06.958Z,20.94
2022-07-26T07:12:09.666Z,20.99
2022-07-26T07:13:07.164Z,21.22
2022-07-26T07:14:07.322Z,21.27
2022-07-26T07:15:06.904Z,21.27
2022-07-26T07:16:06.981Z,21.37
2022-07-26T07:17:10.799Z,21.43
2022-07-26T07:18:07.872Z,21.49
2022-07-26T07:19:06.890Z,21.56
2022-07-26T07:20:06.859Z,21.67
2022-07-26T07:21:06.867Z,21.71
2022-07-26T07:22:06.845Z,21.69
2022-07-26T07:23:07.037Z,21.72
2022-07-26T07:24:07.192Z,21.68
2022-07-26T07:25:06.797Z,21.65
2022-07-26T07:26:07.272Z,21.67
2022-07-26T07:27:06.774Z,21.59
2022-07-26T07:28:06.788Z,21.62
2022-07-26T07:29:06.823Z,21.61
2022-07-26T07:30:06.767Z,21.52
2022-07-26T07:31:06.786Z,21.98
2022-07-26T07:32:06.800Z,21.98
2022-07-26T07:33:07.716Z,22.03
2022-07-26T07:34:07.222Z,22.12
2022-07-26T07:35:08.022Z,22.14
2022-07-26T07:36:07.745Z,22.05
2022-07-26T07:37:06.688Z,22.24
2022-07-26T07:38:07.257Z,22.17
2022-07-26T07:39:10.078Z,22.42
2022-07-26T07:40:07.757Z,22.55
2022-07-26T07:41:06.633Z,22.47
2022-07-26T07:42:06.796Z,22.42
2022-07-26T07:43:06.728Z,22.46
2022-07-26T07:44:06.927Z,22.31
2022-07-26T07:45:06.588Z,22.28
2022-07-26T07:46:06.587Z,22.24
2022-07-26T07:47:06.628Z,22.24
2022-07-26T07:48:06.577Z,22.30
2022-07-26T07:49:06.945Z,22.28
2022-07-26T07:50:06.575Z,22.22
2022-07-26T07:51:06.518Z,22.09
2022-07-26T07:52:06.556Z,22.09
2022-07-26T07:53:06.647Z,21.96
2022-07-26T07:54:06.530Z,22.02
2022-07-26T07:55:36.062Z,21.84
2022-07-26T07:56:07.568Z,21.92
2022-07-26T07:57:06.508Z,21.86
2022-07-26T07:58:06.894Z,21.98
2022-07-26T07:59:06.794Z,22.21
2022-07-26T08:00:06.437Z,22.10
2022-07-26T08:01:06.528Z,22.02
2022-07-26T08:02:06.419Z,21.99
2022-07-26T08:03:06.398Z,22.07
2022-07-26T08:04:06.479Z,22.00
2022-07-26T08:05:13.897Z,22.00
2022-07-26T08:06:07.368Z,21.98
2022-07-26T08:07:06.353Z,22.05
2022-07-26T08:08:06.414Z,22.37
2022-07-26T08:09:06.703Z,22.68
2022-07-26T08:10:06.351Z,22.92
2022-07-26T08:11:07.825Z,23.05
2022-07-26T08:12:06.318Z,23.27
2022-07-26T08:13:06.282Z,23.27
2022-07-26T08:14:06.309Z,23.72
2022-07-26T08:15:07.455Z,23.70
2022-07-26T08:16:06.346Z,23.61
2022-07-26T08:17:06.256Z,23.54
2022-07-26T08:18:07.967Z,23.38
2022-07-26T08:19:06.239Z,23.32
2022-07-26T08:20:06.203Z,23.20
2022-07-26T08:21:06.206Z,23.13
2022-07-26T08:22:06.228Z,22.88
2022-07-26T08:23:06.167Z,22.86
2022-07-26T08:24:06.162Z,22.94
2022-07-26T08:25:06.146Z,22.90
2022-07-26T08:26:06.953Z,22.91
2022-07-26T08:27:06.136Z,22.97
2022-07-26T08:28:09.280Z,23.09
2022-07-26T08:29:07.098Z,23.00
2022-07-26T08:30:06.232Z,23.17
2022-07-26T08:31:06.159Z,23.13
2022-07-26T08:32:06.204Z,23.10
2022-07-26T08:33:06.057Z,23.13
2022-07-26T08:34:06.074Z,23.28
2022-07-26T08:35:19.507Z,23.32
2022-07-26T08:36:07.022Z,23.20
2022-07-26T08:37:17.155Z,23.25
2022-07-26T08:38:07.004Z,23.60
2022-07-26T08:39:06.413Z,24.15
2022-07-26T08:40:05.982Z,24.49
2022-07-26T08:41:05.987Z,24.52
2022-07-26T08:42:05.984Z,24.78
2022-07-26T08:43:05.950Z,25.14
2022-07-26T08:44:05.942Z,25.30
2022-07-26T08:45:05.925Z,25.46
2022-07-26T08:46:05.920Z,25.27
2022-07-26T08:47:05.988Z,25.32
2022-07-26T08:48:19.213Z,25.05
2022-07-26T08:49:07.273Z,24.87
2022-07-26T08:50:05.878Z,24.68
2022-07-26T08:51:05.860Z,24.46
2022-07-26T08:52:06.863Z,24.43
2022-07-26T08:53:05.857Z,24.37
2022-07-26T08:54:06.347Z,24.16
2022-07-26T08:55:05.838Z,24.16
2022-07-26T08:56:07.513Z,23.97
2022-07-26T08:57:05.797Z,23.80
2022-07-26T08:58:05.790Z,23.70
2022-07-26T08:59:06.281Z,23.75
2022-07-26T09:00:05.762Z,23.70
2022-07-26T09:01:05.835Z,23.63
2022-07-26T09:02:05.744Z,23.66
2022-07-26T09:03:05.727Z,23.66
2022-07-26T09:04:05.766Z,23.70
2022-07-26T09:05:05.710Z,23.54
2022-07-26T09:06:05.701Z,23.51
2022-07-26T09:07:06.022Z,23.48
2022-07-26T09:08:05.681Z,23.43
2022-07-26T09:09:06.089Z,23.40
2022-07-26T09:10:05.656Z,23.38
2022-07-26T09:11:05.644Z,23.32
2022-07-26T09:12:05.655Z,23.15
2022-07-26T09:13:05.622Z,23.13
2022-07-26T09:14:05.620Z,23.23
2022-07-26T09:15:05.619Z,23.31
2022-07-26T09:16:05.648Z,23.40
2022-07-26T09:17:05.572Z,23.33
2022-07-26T09:18:05.562Z,23.35
2022-07-26T09:19:05.782Z,23.36
2022-07-26T09:20:05.551Z,23.36
2022-07-26T09:21:05.532Z,23.20
2022-07-26T09:22:09.966Z,23.32
2022-07-26T09:23:05.512Z,23.20
2022-07-26T09:24:05.502Z,23.20
2022-07-26T09:25:05.509Z,23.20
2022-07-26T09:26:05.477Z,23.15
2022-07-26T09:27:05.466Z,23.17
2022-07-26T09:28:05.465Z,23.10
2022-07-26T09:29:05.797Z,23.00
2022-07-26T09:30:05.455Z,23.01
2022-07-26T09:31:05.505Z,23.09
2022-07-26T09:32:05.451Z,23.10
2022-07-26T09:33:05.516Z,23.01
2022-07-26T09:34:06.506Z,23.12
2022-07-26T09:35:18.818Z,23.16
2022-07-26T09:36:06.765Z,23.15
2022-07-26T09:37:08.609Z,23.12
2022-07-26T09:38:06.373Z,23.13
2022-07-26T09:39:05.666Z,23.00
2022-07-26T09:40:05.319Z,22.92
2022-07-26T09:41:05.324Z,22.88
2022-07-26T09:42:26.889Z,22.90
2022-07-26T09:43:06.392Z,22.88
2022-07-26T09:44:05.289Z,22.91
2022-07-26T09:45:05.264Z,22.95
2022-07-26T09:46:05.529Z,22.85
2022-07-26T09:47:05.247Z,22.91
2022-07-26T09:48:05.235Z,23.00
2022-07-26T09:49:10.991Z,23.07
2022-07-26T09:50:09.323Z,23.12
2022-07-26T09:51:06.258Z,23.12
2022-07-26T09:52:05.191Z,23.23
2022-07-26T09:53:05.202Z,23.36
2022-07-26T09:54:05.171Z,23.43
2022-07-26T09:55:05.159Z,23.55
2022-07-26T09:56:05.166Z,23.61
2022-07-26T09:57:05.159Z,23.75
2022-07-26T09:58:05.162Z,23.73
2022-07-26T09:59:05.110Z,23.76
2022-07-26T10:00:05.101Z,23.73
2022-07-26T10:01:05.084Z,23.75
2022-07-26T10:02:05.111Z,23.85
2022-07-26T10:03:05.108Z,23.97
2022-07-26T10:04:05.091Z,24.03
2022-07-26T10:05:05.048Z,24.16
2022-07-26T10:06:05.040Z,24.25
2022-07-26T10:07:05.027Z,24.21
2022-07-26T10:08:05.045Z,24.21
2022-07-26T10:09:05.013Z,24.31
2022-07-26T10:10:05.024Z,24.09
2022-07-26T10:11:04.985Z,24.25
2022-07-26T10:12:05.003Z,24.45
2022-07-26T10:13:04.968Z,24.35
2022-07-26T10:14:04.959Z,24.40
2022-07-26T10:15:04.970Z,24.31
2022-07-26T10:16:05.013Z,24.28
2022-07-26T10:17:04.923Z,24.09
2022-07-26T10:18:05.078Z,23.98
2022-07-26T10:19:04.900Z,24.10
2022-07-26T10:20:09.251Z,24.08
2022-07-26T10:21:05.888Z,24.12
2022-07-26T10:22:04.877Z,24.12
2022-07-26T10:23:04.854Z,24.13
2022-07-26T10:24:04.871Z,24.20
2022-07-26T10:25:04.841Z,24.22
2022-07-26T10:26:04.844Z,24.32
2022-07-26T10:27:04.812Z,24.39
2022-07-26T10:28:11.789Z,24.46
2022-07-26T10:29:05.793Z,24.52
2022-07-26T10:30:04.788Z,24.50
2022-07-26T10:31:04.818Z,24.62
2022-07-26T10:32:04.762Z,24.60
2022-07-26T10:33:05.154Z,24.71
2022-07-26T10:34:04.751Z,24.73
2022-07-26T10:35:04.726Z,24.57
2022-07-26T10:36:04.716Z,24.49
2022-07-26T10:37:04.730Z,24.57
2022-07-26T10:38:04.692Z,24.62
2022-07-26T10:39:04.720Z,24.76
2022-07-26T10:40:04.704Z,24.65
2022-07-26T10:41:04.683Z,24.52
2022-07-26T10:42:04.648Z,24.50
2022-07-26T10:43:30.098Z,24.52
2022-07-26T10:44:05.623Z,24.39
2022-07-26T10:45:04.811Z,24.53
2022-07-26T10:46:04.666Z,24.55
2022-07-26T10:47:04.597Z,24.50
2022-07-26T10:48:04.612Z,24.50
2022-07-26T10:49:04.862Z,24.65
2022-07-26T10:50:04.560Z,24.69
2022-07-26T10:51:06.506Z,24.71
2022-07-26T10:52:04.604Z,24.73
2022-07-26T10:53:04.534Z,24.76
2022-07-26T10:54:04.517Z,24.76
2022-07-26T10:55:04.509Z,24.78
2022-07-26T10:56:04.555Z,24.95
2022-07-26T10:57:04.527Z,24.91
2022-07-26T10:58:04.485Z,25.00
2022-07-26T10:59:04.472Z,24.93
2022-07-26T11:00:04.469Z,25.05
2022-07-26T11:01:04.449Z,24.90
2022-07-26T11:02:04.495Z,24.99
2022-07-26T11:03:04.619Z,24.98
2022-07-26T11:04:04.408Z,25.00
2022-07-26T11:05:04.404Z,24.95
2022-07-26T11:06:04.387Z,24.87
2022-07-26T11:07:04.374Z,24.95
2022-07-26T11:08:04.391Z,24.85
2022-07-26T11:09:04.352Z,24.73
2022-07-26T11:10:04.346Z,24.65
2022-07-26T11:11:04.341Z,24.58
2022-07-26T11:12:04.349Z,24.55
2022-07-26T11:13:04.310Z,24.50
2022-07-26T11:14:04.312Z,24.47
2022-07-26T11:15:04.301Z,24.57
2022-07-26T11:16:04.366Z,24.53
2022-07-26T11:17:04.290Z,24.53
2022-07-26T11:18:04.261Z,24.55
2022-07-26T11:19:04.245Z,24.50
2022-07-26T11:20:04.256Z,24.47
2022-07-26T11:21:04.223Z,24.34
2022-07-26T11:22:04.215Z,24.25
2022-07-26T11:23:04.213Z,24.18
2022-07-26T11:24:04.217Z,24.20
2022-07-26T11:25:04.208Z,24.24
2022-07-26T11:26:04.170Z,24.13
2022-07-26T11:27:04.170Z,24.09
2022-07-26T11:28:07.220Z,24.18
2022-07-26T11:29:06.684Z,24.16
2022-07-26T11:30:04.148Z,24.15
2022-07-26T11:31:04.179Z,24.10
2022-07-26T11:32:14.615Z,24.09
2022-07-26T11:33:05.122Z,24.10
2022-07-26T11:34:04.087Z,24.10
2022-07-26T11:35:04.090Z,24.12
2022-07-26T11:36:04.061Z,24.24
2022-07-26T11:37:04.149Z,24.10
2022-07-26T11:38:11.811Z,24.18
2022-07-26T11:39:05.027Z,24.27
2022-07-26T11:40:04.119Z,24.32
2022-07-26T11:41:04.006Z,24.35
2022-07-26T11:42:04.027Z,24.53
2022-07-26T11:43:03.986Z,24.57
2022-07-26T11:44:04.006Z,24.68
2022-07-26T11:45:03.966Z,24.78
2022-07-26T11:46:04.015Z,24.85
2022-07-26T11:47:03.943Z,24.81
2022-07-26T11:48:03.929Z,24.80
2022-07-26T11:49:03.990Z,24.91
2022-07-26T11:50:23.098Z,24.90
2022-07-26T11:51:07.132Z,24.90
2022-07-26T11:52:03.899Z,24.90
2022-07-26T11:53:03.899Z,25.06
2022-07-26T11:54:03.876Z,25.00
2022-07-26T11:55:03.869Z,24.99
2022-07-26T11:56:03.841Z,24.99
2022-07-26T11:57:03.865Z,25.05
2022-07-26T11:58:03.827Z,25.02
2022-07-26T11:59:03.813Z,25.05
2022-07-26T12:00:03.824Z,25.14
2022-07-26T12:01:03.798Z,25.21
2022-07-26T12:02:03.801Z,25.13
2022-07-26T12:03:03.974Z,25.14
2022-07-26T12:04:03.921Z,25.28
2022-07-26T12:05:03.996Z,25.35
2022-07-26T12:06:03.744Z,25.55
2022-07-26T12:07:03.755Z,25.65
2022-07-26T12:08:03.717Z,25.88
2022-07-26T12:09:03.705Z,26.10
2022-07-26T12:10:03.695Z,26.17
2022-07-26T12:11:03.711Z,26.23
2022-07-26T12:12:03.676Z,26.18
2022-07-26T12:13:03.659Z,26.13
2022-07-26T12:14:03.652Z,26.01
2022-07-26T12:15:03.667Z,25.79
2022-07-26T12:16:03.683Z,25.61
2022-07-26T12:17:03.639Z,25.38
2022-07-26T12:18:03.612Z,25.27
2022-07-26T12:19:03.602Z,25.24
2022-07-26T12:20:03.665Z,25.05
2022-07-26T12:21:06.775Z,24.69
2022-07-26T12:22:03.562Z,24.50
2022-07-26T12:23:03.559Z,24.13
2022-07-26T12:24:03.537Z,23.70
2022-07-26T12:25:03.535Z,23.35
2022-07-26T12:26:08.178Z,23.05
2022-07-26T12:27:04.508Z,22.68
2022-07-26T12:28:03.505Z,22.40
2022-07-26T12:29:03.494Z,22.25
2022-07-26T12:30:03.547Z,21.98
2022-07-26T12:31:03.516Z,21.75
2022-07-26T12:32:03.454Z,21.56
2022-07-26T12:33:03.468Z,21.34
2022-07-26T12:34:03.433Z,21.24
2022-07-26T12:35:03.442Z,21.17
2022-07-26T12:36:03.420Z,21.16
2022-07-26T12:37:03.397Z,21.21
2022-07-26T12:38:03.382Z,21.16
2022-07-26T12:39:03.399Z,21.16
2022-07-26T12:40:03.430Z,21.06
2022-07-26T12:41:03.369Z,21.13
2022-07-26T12:42:03.361Z,21.14
2022-07-26T12:43:03.330Z,21.13
2022-07-26T12:44:03.365Z,21.17
2022-07-26T12:45:03.315Z,21.16
2022-07-26T12:46:03.379Z,21.24
2022-07-26T12:47:03.290Z,21.22
2022-07-26T12:48:03.276Z,21.16
2022-07-26T12:49:03.383Z,20.97
2022-07-26T12:50:03.391Z,20.98
2022-07-26T12:51:03.253Z,20.97
2022-07-26T12:52:03.259Z,21.04